Time;durP1;ratioP1;P1;durP2;ratioP2;P2;SDS_P1;SDS_P2;PMS_P1;PMS_P2;Temp;Humidity;BMP_temperature;BMP_pressure;BME280_temperature;BME280_humidity;BME280_pressure;Samples;Min_cycle;Max_cycle;Signal;HPM_P1;HPM_P2
2023/01/01 00:01:44;;;;;;;30.95;17.13;;;15.60;87.30;;;;;;5060231;28;20024;-63
2023/01/01 00:04:12;;;;;;;27.48;16.80;;;15.70;86.30;;;;;;5062552;28;20096;-66
2023/01/01 00:06:38;;;;;;;28.50;15.07;;;15.60;86.20;;;;;;5054496;28;20029;-67
2023/01/01 00:11:48;;;;;;;23.55;11.75;;;15.70;85.50;;;;;;5053691;28;20081;-66
2023/01/01 00:14:13;;;;;;;21.08;12.02;;;15.70;85.70;;;;;;5048331;28;20393;-64
2023/01/01 00:16:39;;;;;;;23.30;12.32;;;15.70;85.40;;;;;;5054409;28;20036;-66
2023/01/01 00:19:04;;;;;;;23.10;11.55;;;15.70;85.80;;;;;;5056861;28;20029;-67
2023/01/01 00:21:30;;;;;;;20.13;10.50;;;15.70;85.80;;;;;;5058366;28;20432;-66
2023/01/01 00:23:56;;;;;;;16.15;9.10;;;15.70;86.30;;;;;;5036491;28;20354;-66
2023/01/01 00:26:21;;;;;;;15.68;8.70;;;15.70;85.40;;;;;;5069255;28;20031;-67
2023/01/01 00:28:47;;;;;;;16.05;8.75;;;15.70;85.70;;;;;;5055526;28;20432;-66
2023/01/01 00:31:16;;;;;;;23.77;12.35;;;15.70;85.70;;;;;;5055192;28;20477;-65
2023/01/01 00:33:42;;;;;;;16.48;8.30;;;15.70;85.20;;;;;;5054639;28;20112;-64
2023/01/01 00:36:09;;;;;;;14.60;7.80;;;15.70;85.20;;;;;;5056689;28;20379;-65
2023/01/01 00:38:35;;;;;;;12.45;6.72;;;15.70;84.90;;;;;;5056139;28;20024;-65
2023/01/01 00:41:00;;;;;;;11.60;6.72;;;15.70;85.20;;;;;;5065633;28;20100;-65
2023/01/01 00:43:26;;;;;;;14.10;6.38;;;15.80;85.10;;;;;;5036315;28;20071;-66
2023/01/01 00:45:52;;;;;;;16.48;6.70;;;15.80;84.60;;;;;;5060182;28;20096;-65
2023/01/01 00:48:18;;;;;;;10.95;5.35;;;15.90;84.90;;;;;;5063793;28;20491;-65
2023/01/01 00:50:44;;;;;;;11.60;6.07;;;15.80;84.30;;;;;;5053897;28;20580;-64
2023/01/01 00:53:09;;;;;;;10.80;5.07;;;15.80;85.10;;;;;;5060842;28;20115;-66
2023/01/01 00:55:35;;;;;;;12.38;4.82;;;15.80;86.40;;;;;;5074151;28;20127;-64
2023/01/01 00:58:01;;;;;;;8.90;4.30;;;15.70;87.40;;;;;;5073449;28;20507;-64
2023/01/01 01:00:26;;;;;;;8.50;4.30;;;15.70;88.60;;;;;;5068566;28;20067;-67
2023/01/01 01:02:52;;;;;;;9.07;4.35;;;15.60;89.60;;;;;;5058795;28;20027;-64
2023/01/01 01:05:17;;;;;;;11.38;5.25;;;15.50;90.00;;;;;;5055378;28;20029;-65
2023/01/01 01:07:43;;;;;;;11.20;4.15;;;15.50;90.00;;;;;;5056013;28;20024;-63
2023/01/01 01:10:09;;;;;;;9.02;3.47;;;15.40;90.30;;;;;;5054794;28;20025;-63
2023/01/01 01:12:35;;;;;;;8.95;3.33;;;15.50;90.00;;;;;;5053303;28;20031;-63
2023/01/01 01:15:01;;;;;;;8.85;3.90;;;15.50;90.00;;;;;;5056652;28;20474;-64
2023/01/01 01:17:28;;;;;;;7.95;3.08;;;15.50;90.20;;;;;;5053557;28;20052;-63
2023/01/01 01:19:54;;;;;;;9.65;3.03;;;15.50;90.50;;;;;;5053048;28;20056;-63
2023/01/01 01:22:19;;;;;;;10.40;2.83;;;15.40;90.30;;;;;;5073512;28;20025;-63
2023/01/01 01:24:45;;;;;;;8.80;3.22;;;15.40;90.30;;;;;;5073963;28;20025;-64
2023/01/01 01:27:10;;;;;;;11.98;3.03;;;15.40;90.10;;;;;;5072937;28;20029;-64
2023/01/01 01:29:36;;;;;;;10.30;2.65;;;15.40;90.30;;;;;;5073522;28;20104;-64
2023/01/01 01:32:02;;;;;;;7.28;2.90;;;15.40;89.90;;;;;;5073263;28;20020;-65
2023/01/01 01:34:28;;;;;;;6.60;2.70;;;15.30;89.90;;;;;;5056222;28;20033;-63
2023/01/01 01:36:54;;;;;;;7.65;3.08;;;15.40;89.50;;;;;;5053392;28;20037;-66
2023/01/01 01:39:19;;;;;;;5.50;2.20;;;15.40;88.10;;;;;;5053442;28;20025;-66
2023/01/01 01:41:45;;;;;;;4.53;2.08;;;15.40;88.60;;;;;;5051859;28;20104;-64
2023/01/01 01:44:48;;;;;;;6.72;2.33;;;15.40;88.80;;;;;;5053073;28;20494;-63
2023/01/01 01:47:25;;;;;;;6.90;2.15;;;15.40;88.70;;;;;;5068954;28;20028;-66
2023/01/01 01:49:58;;;;;;;7.03;2.50;;;15.40;87.80;;;;;;5053381;28;20428;-67
2023/01/01 01:52:26;;;;;;;4.43;2.33;;;15.40;87.80;;;;;;5069375;28;20060;-67
2023/01/01 01:54:52;;;;;;;7.03;2.80;;;15.40;87.30;;;;;;5056940;28;20037;-64
2023/01/01 01:57:18;;;;;;;6.00;2.20;;;15.40;87.50;;;;;;5052725;28;20391;-65
2023/01/01 01:59:49;;;;;;;5.30;1.98;;;15.40;87.80;;;;;;5053926;28;20025;-64
2023/01/01 02:02:47;;;;;;;4.18;1.70;;;15.40;87.80;;;;;;5063398;28;20163;-64
2023/01/01 02:05:12;;;;;;;6.85;2.28;;;15.40;88.10;;;;;;5047056;28;20080;-64
2023/01/01 02:07:39;;;;;;;7.93;2.95;;;15.30;87.60;;;;;;5071830;28;20056;-65
2023/01/01 02:10:05;;;;;;;5.38;1.95;;;15.30;88.20;;;;;;5053343;28;20029;-64
2023/01/01 02:12:31;;;;;;;3.42;2.13;;;15.30;87.80;;;;;;5072724;28;20035;-64
2023/01/01 02:14:57;;;;;;;4.00;1.65;;;15.30;87.40;;;;;;5072806;28;20103;-66
2023/01/01 02:17:31;;;;;;;7.38;2.03;;;15.30;87.90;;;;;;5071236;28;20029;-65
2023/01/01 02:20:42;;;;;;;5.93;1.70;;;15.30;87.20;;;;;;5054895;28;20032;-64
2023/01/01 02:23:35;;;;;;;4.18;1.42;;;15.30;87.50;;;;;;5024590;28;20509;-65
2023/01/01 02:26:18;;;;;;;10.38;1.90;;;15.40;86.80;;;;;;5072864;28;20025;-66
2023/01/01 02:29:03;;;;;;;5.72;1.52;;;15.30;86.90;;;;;;5071591;28;20477;-66
2023/01/01 02:31:35;;;;;;;4.55;1.70;;;15.30;87.30;;;;;;5053962;28;20033;-65
2023/01/01 02:34:08;;;;;;;3.72;1.77;;;15.30;87.50;;;;;;5072230;28;20108;-66
2023/01/01 02:36:38;;;;;;;5.28;1.80;;;15.30;87.70;;;;;;5072058;28;20036;-65
2023/01/01 02:39:06;;;;;;;4.93;2.10;;;15.30;87.70;;;;;;5072249;28;20122;-64
2023/01/01 02:41:45;;;;;;;5.57;1.83;;;15.30;87.60;;;;;;5064575;28;20064;-65
2023/01/01 02:44:11;;;;;;;6.47;2.05;;;15.20;87.90;;;;;;5060909;28;20047;-63
2023/01/01 02:46:37;;;;;;;6.30;2.10;;;15.20;87.90;;;;;;5055574;28;20081;-62
2023/01/01 16:17:17;;;;;;;8.57;4.47;;;11.40;99.90;;;;;;5088738;27;1237873;-62
2023/01/01 16:19:44;;;;;;;10.45;4.25;;;11.40;99.90;;;;;;5110284;28;20028;-61
2023/01/01 16:22:13;;;;;;;11.45;5.00;;;11.50;99.90;;;;;;5097871;28;20031;-63
2023/01/01 16:24:38;;;;;;;15.10;5.75;;;11.50;99.90;;;;;;5108131;28;20024;-63
2023/01/01 16:27:04;;;;;;;15.40;5.35;;;11.70;99.90;;;;;;5108420;28;20074;-63
2023/01/01 16:29:30;;;;;;;15.93;6.63;;;11.80;99.90;;;;;;5108393;28;20020;-64
2023/01/01 16:31:55;;;;;;;11.32;5.95;;;11.80;99.90;;;;;;5108496;28;20069;-64
2023/01/01 16:34:21;;;;;;;12.60;7.13;;;11.90;99.90;;;;;;5107362;28;20043;-64
2023/01/01 16:36:46;;;;;;;13.30;7.68;;;12.00;99.90;;;;;;5108644;28;20047;-63
2023/01/01 16:39:12;;;;;;;17.38;8.32;;;12.00;99.90;;;;;;5094856;28;20024;-63
2023/01/01 16:41:42;;;;;;;14.88;8.60;;;12.10;99.90;;;;;;5088931;28;20021;-63
2023/01/01 16:44:12;;;;;;;18.05;8.35;;;12.10;99.90;;;;;;5088824;28;20017;-62
2023/01/01 16:46:38;;;;;;;13.40;7.72;;;12.10;99.90;;;;;;5089621;28;20039;-62
2023/01/01 16:49:03;;;;;;;14.45;7.18;;;12.20;99.90;;;;;;5101200;28;20381;-62
2023/01/01 16:51:30;;;;;;;12.57;4.93;;;12.20;99.90;;;;;;5088479;28;20034;-64
2023/01/01 16:53:58;;;;;;;14.15;7.07;;;12.20;99.90;;;;;;5102629;28;20063;-66
2023/01/01 16:56:23;;;;;;;13.95;6.95;;;12.20;99.90;;;;;;5095481;28;20038;-66
2023/01/01 16:58:49;;;;;;;10.38;6.43;;;12.20;99.90;;;;;;5108213;28;20016;-64
2023/01/01 17:01:15;;;;;;;16.90;7.80;;;12.30;99.90;;;;;;5108266;28;20031;-64
2023/01/01 17:03:41;;;;;;;17.83;9.27;;;12.30;99.90;;;;;;5108730;28;20024;-66
2023/01/01 17:06:08;;;;;;;14.93;9.00;;;12.30;99.90;;;;;;5100858;28;20028;-64
2023/01/01 17:08:35;;;;;;;18.63;8.98;;;12.30;99.90;;;;;;5087475;28;20031;-64
2023/01/01 17:11:12;;;;;;;11.43;6.68;;;12.30;99.90;;;;;;5089603;28;20023;-63
2023/01/01 17:13:39;;;;;;;11.15;6.63;;;12.30;99.90;;;;;;5087537;28;20380;-64
2023/01/01 17:16:05;;;;;;;11.20;5.40;;;12.30;99.90;;;;;;5088098;28;20040;-64
2023/01/01 17:18:32;;;;;;;11.68;5.70;;;12.20;99.90;;;;;;5087988;28;20107;-64
2023/01/01 17:21:05;;;;;;;10.63;4.70;;;12.20;99.90;;;;;;5074200;28;20021;-63
2023/01/01 17:23:38;;;;;;;9.88;5.25;;;12.30;99.90;;;;;;5102299;28;20031;-64
2023/01/01 17:26:18;;;;;;;10.48;5.07;;;12.20;99.90;;;;;;5088681;28;20035;-63
2023/01/01 17:28:45;;;;;;;11.63;3.88;;;12.20;99.90;;;;;;5068288;28;20329;-62
2023/01/01 17:31:13;;;;;;;8.60;4.30;;;12.20;99.90;;;;;;5094838;28;20019;-63
2023/01/01 17:33:40;;;;;;;10.30;3.70;;;12.20;99.90;;;;;;5093583;28;20020;-64
2023/01/01 17:36:07;;;;;;;8.25;4.45;;;12.20;99.90;;;;;;5090499;28;20044;-64
2023/01/01 17:38:33;;;;;;;11.10;4.47;;;12.20;99.90;;;;;;5080367;28;20523;-65
2023/01/01 17:41:04;;;;;;;8.50;4.28;;;12.20;99.90;;;;;;5074024;28;20090;-64
2023/01/01 17:43:32;;;;;;;11.75;5.70;;;12.20;99.90;;;;;;5072972;28;20016;-65
2023/01/01 17:46:05;;;;;;;12.77;6.07;;;12.10;99.90;;;;;;5073640;28;20397;-65
2023/01/01 17:48:31;;;;;;;14.18;6.00;;;12.10;99.90;;;;;;5073661;28;20015;-64
2023/01/01 17:50:57;;;;;;;14.00;7.47;;;12.20;99.90;;;;;;5081085;28;20032;-64
2023/01/01 17:53:22;;;;;;;15.30;9.52;;;12.20;99.90;;;;;;5076207;28;20022;-64
2023/01/01 17:55:48;;;;;;;13.68;8.18;;;12.10;99.90;;;;;;5093291;28;20036;-64
2023/01/01 17:58:14;;;;;;;14.27;8.00;;;12.10;99.90;;;;;;5057933;28;20265;-64
2023/01/01 18:00:39;;;;;;;15.68;8.35;;;12.10;99.90;;;;;;5071086;28;20039;-64
2023/01/01 18:03:05;;;;;;;12.25;7.10;;;12.10;99.90;;;;;;5075059;28;20073;-64
2023/01/01 18:05:30;;;;;;;10.32;4.85;;;12.10;99.90;;;;;;5081122;28;20025;-64
2023/01/01 18:07:56;;;;;;;9.38;3.95;;;12.10;99.90;;;;;;5073774;28;20059;-64
2023/01/01 18:10:21;;;;;;;12.38;4.03;;;12.10;99.90;;;;;;5074072;28;20025;-64
2023/01/01 18:12:47;;;;;;;8.70;4.00;;;12.10;99.90;;;;;;5073159;28;20032;-64
2023/01/01 18:15:13;;;;;;;12.68;6.03;;;12.10;99.90;;;;;;5073570;28;20436;-64
2023/01/01 18:17:38;;;;;;;12.15;5.45;;;12.10;99.90;;;;;;5085491;28;20039;-64
2023/01/01 18:20:04;;;;;;;10.40;6.28;;;12.10;99.90;;;;;;5075758;28;20052;-64
2023/01/01 18:22:30;;;;;;;15.07;7.03;;;12.10;99.90;;;;;;5055066;28;20105;-64
2023/01/01 18:24:56;;;;;;;12.77;8.10;;;12.10;99.90;;;;;;5072676;28;20044;-64
2023/01/01 18:27:21;;;;;;;16.90;8.98;;;12.00;99.90;;;;;;5073485;28;20040;-64
2023/01/01 18:29:48;;;;;;;20.25;9.65;;;12.00;99.90;;;;;;5088713;28;20066;-63
2023/01/01 18:32:14;;;;;;;18.83;9.57;;;12.00;99.90;;;;;;5091508;28;20511;-64
2023/01/01 18:34:39;;;;;;;14.70;8.48;;;12.00;99.90;;;;;;5075151;28;20024;-64
2023/01/01 18:37:05;;;;;;;16.35;7.28;;;12.00;99.90;;;;;;5066342;28;20040;-63
2023/01/01 18:39:32;;;;;;;17.67;10.32;;;12.00;99.90;;;;;;5071331;28;20501;-63
2023/01/01 18:42:06;;;;;;;14.93;8.85;;;12.00;99.90;;;;;;5075862;28;20382;-63
2023/01/01 18:44:32;;;;;;;18.67;9.48;;;11.90;99.90;;;;;;5072585;28;20020;-64
2023/01/01 18:47:04;;;;;;;18.83;9.82;;;11.90;99.90;;;;;;5084719;28;20043;-64
2023/01/01 18:49:30;;;;;;;;;;;11.90;99.90;;;;;;5093325;28;20049;-63
2023/01/01 18:52:04;;;;;;;15.27;8.75;;;11.80;99.90;;;;;;5092922;28;20399;-64
2023/01/01 18:54:31;;;;;;;15.80;9.80;;;11.80;99.90;;;;;;5093017;28;20089;-63
2023/01/01 18:57:10;;;;;;;14.20;8.13;;;11.80;99.90;;;;;;5092957;28;20625;-63
2023/01/01 18:59:36;;;;;;;13.00;7.05;;;11.70;99.90;;;;;;5090422;28;20090;-63
2023/01/01 19:02:26;;;;;;;11.18;7.00;;;11.70;99.90;;;;;;5092958;28;20035;-62
2023/01/01 19:04:55;;;;;;;15.65;6.63;;;11.70;99.90;;;;;;5090048;28;20032;-63
2023/01/01 19:07:21;;;;;;;17.13;8.05;;;11.70;99.90;;;;;;5092322;28;20020;-63
2023/01/01 19:09:46;;;;;;;19.70;9.60;;;11.70;99.90;;;;;;5092239;28;20128;-63
2023/01/01 19:12:17;;;;;;;14.40;8.15;;;11.70;99.90;;;;;;5054504;28;20055;-63
2023/01/01 19:14:43;;;;;;;15.15;10.13;;;11.60;99.90;;;;;;5053817;28;20040;-64
2023/01/01 19:17:15;;;;;;;18.85;10.68;;;11.60;99.90;;;;;;5054187;28;20045;-64
2023/01/01 19:19:41;;;;;;;11.05;6.50;;;11.60;99.90;;;;;;5054293;28;20399;-65
2023/01/01 19:22:32;;;;;;;12.25;5.20;;;11.60;99.90;;;;;;5073910;28;20012;-63
2023/01/01 19:24:58;;;;;;;9.60;4.43;;;11.60;99.90;;;;;;5079963;28;20028;-64
2023/01/01 19:27:23;;;;;;;6.25;3.08;;;11.60;99.90;;;;;;5091365;28;20038;-64
2023/01/01 19:29:50;;;;;;;8.77;3.25;;;11.60;99.90;;;;;;5092033;28;20099;-63
2023/01/01 19:32:16;;;;;;;5.93;3.10;;;11.60;99.90;;;;;;5092559;28;20024;-63
2023/01/01 19:34:42;;;;;;;9.27;3.70;;;11.60;99.90;;;;;;5073168;28;20111;-64
2023/01/01 19:37:08;;;;;;;10.50;3.17;;;11.60;99.90;;;;;;5092424;28;20036;-64
2023/01/01 19:39:34;;;;;;;9.10;2.70;;;11.60;99.90;;;;;;5089326;28;20028;-64
2023/01/01 19:42:03;;;;;;;6.00;2.67;;;11.60;99.90;;;;;;5091839;28;20032;-64
2023/01/01 19:44:33;;;;;;;4.88;2.83;;;11.60;99.90;;;;;;5091637;28;20104;-64
2023/01/01 19:46:59;;;;;;;6.75;3.35;;;11.60;99.90;;;;;;5072834;28;20115;-64
2023/01/01 19:49:26;;;;;;;4.35;2.40;;;11.60;99.90;;;;;;5091465;28;20051;-64
2023/01/01 19:51:52;;;;;;;6.45;2.78;;;11.60;99.90;;;;;;5091536;28;20032;-64
2023/01/01 19:54:17;;;;;;;9.10;2.60;;;11.60;99.90;;;;;;5092103;28;20081;-63
2023/01/01 19:56:44;;;;;;;5.00;2.47;;;11.60;99.90;;;;;;5091388;28;20031;-64
2023/01/01 19:59:09;;;;;;;9.25;3.22;;;11.60;99.90;;;;;;5089625;28;20016;-64
2023/01/01 20:01:35;;;;;;;6.22;2.42;;;11.60;99.90;;;;;;5091611;28;20024;-64
2023/01/01 20:04:00;;;;;;;5.32;2.15;;;11.60;99.90;;;;;;5085746;28;20334;-64
2023/01/01 20:06:26;;;;;;;4.85;2.40;;;11.60;99.90;;;;;;5071759;28;20032;-64
2023/01/01 20:08:52;;;;;;;8.00;2.50;;;11.60;99.90;;;;;;5071555;28;20045;-64
2023/01/01 20:11:19;;;;;;;6.30;2.83;;;11.60;99.90;;;;;;5053087;28;20040;-64
2023/01/01 20:13:45;;;;;;;9.77;2.92;;;11.60;99.90;;;;;;5071226;28;20473;-64
2023/01/01 20:16:10;;;;;;;7.00;2.78;;;11.60;99.90;;;;;;5090414;28;20059;-64
2023/01/01 20:18:36;;;;;;;4.93;2.25;;;11.60;99.90;;;;;;5072807;28;20031;-64
2023/01/01 20:23:46;;;;;;;5.90;2.50;;;11.60;99.90;;;;;;5091337;28;20035;-64
2023/01/01 20:26:13;;;;;;;3.70;2.47;;;11.60;99.90;;;;;;5088023;28;20028;-64
2023/01/01 20:31:22;;;;;;;6.25;2.70;;;11.60;99.90;;;;;;5091557;28;20031;-64
2023/01/01 20:33:51;;;;;;;6.78;3.65;;;11.60;99.90;;;;;;5074185;28;20025;-64
